Aérodrome :
LOGIN :

S'inscrire | Disclaimer

   EN    FR    IT 

 










Légende :    VFR   VFR Marginal   IFR   IFR Intensif   IFR Très Intensif
Visi : 
Plafond : 
>= 8 km
>= 3000ft
5 à 8 km
1000 à 3000 ft
1500m à 5 km
500 à 1000 ft
800 à 1500m
200 à 500 ft
< 800m
< 200 ft
Symboles :   Orages  Brouillard  Fortes neiges  Fortes précipitations  Vent > 20 kt
SIGMETs :   Divers  Orages  Givrage  Turbulence  Onde Orograph.  Cendres Volcan.







- Altitude de l'aérodrome : 26 ft


ETNT - Wittmundhaven AB

DERNIER METAR :
  • 200120Z AUTO 21009KT 8000 // ////// 12/11 Q1016 ///

METARs EXPIRÉS :
  • 200020Z AUTO 19006KT 8000 // ////// 12/11 Q1016 ///
  • 192320Z AUTO /////KT //// // ////// ///// Q//// ///

TAF TAF ETNT
Valide du 20 à 02h jusqu'au 20 à 11h UTC


200100Z 2002/2011 22010KT 9999 NSW SCT030
TEMPO 2002/2011 24015KT 5000 -SHRA SCT020 BKN025TCU
PROB30 2009/2011 25015G25KT 2500 TSRA SCT010 BKN020CB BY ETGL
Pas de NOTAMs connus pour ce terrain.



MET'MAP, la Météo Aéronautique d'un coup d'oeil ! - Copyright ORBIFLY Décembre 2007 - Disclaimer

ORBIFLY MET'MAP TEAM :

Programmation & Développement : Alexandra Zaïnal
Conception & Développement : Baudouin d'Aumeries
Co-Programmation & Développement : Marc-Olivier Méhu
Soutien technique & logistique : Manuel Goepfert

Contact : metmap@orbifly.com




SOURCES & CREDITS :

   NOAA